createdAt,value
2023-01-12T00:00:29.426Z,0.00
2023-01-12T00:01:29.324Z,0.00
2023-01-12T00:02:29.367Z,0.00
2023-01-12T00:03:29.309Z,0.00
2023-01-12T00:04:29.398Z,0.00
2023-01-12T00:05:29.281Z,0.00
2023-01-12T00:06:29.301Z,0.00
2023-01-12T00:07:29.263Z,0.00
2023-01-12T00:08:29.252Z,0.00
2023-01-12T00:09:29.266Z,0.00
2023-01-12T00:10:29.244Z,0.00
2023-01-12T00:11:29.222Z,0.00
2023-01-12T00:12:29.204Z,0.00
2023-01-12T00:13:29.225Z,0.00
2023-01-12T00:14:29.208Z,0.00
2023-01-12T00:15:29.171Z,0.00
2023-01-12T00:16:29.213Z,0.00
2023-01-12T00:17:29.148Z,0.00
2023-01-12T00:18:29.150Z,0.00
2023-01-12T00:19:29.153Z,0.00
2023-01-12T00:20:29.120Z,0.00
2023-01-12T00:21:29.118Z,0.00
2023-01-12T00:22:29.094Z,0.00
2023-01-12T00:23:29.106Z,0.00
2023-01-12T00:24:29.120Z,0.00
2023-01-12T00:25:29.061Z,0.00
2023-01-12T00:26:29.084Z,0.00
2023-01-12T00:27:29.051Z,0.00
2023-01-12T00:28:29.025Z,0.00
2023-01-12T00:29:29.062Z,0.00
2023-01-12T00:30:29.016Z,0.00
2023-01-12T00:31:29.051Z,0.00
2023-01-12T00:32:28.998Z,0.00
2023-01-12T00:33:28.984Z,0.00
2023-01-12T00:34:29.889Z,0.00
2023-01-12T00:35:28.984Z,0.00
2023-01-12T00:36:28.962Z,0.00
2023-01-12T00:37:28.974Z,0.00
2023-01-12T00:38:28.930Z,0.00
2023-01-12T00:39:28.932Z,0.00
2023-01-12T00:40:28.906Z,0.00
2023-01-12T00:41:28.897Z,0.00
2023-01-12T00:42:28.882Z,0.00
2023-01-12T00:43:28.893Z,0.00
2023-01-12T00:44:28.882Z,0.00
2023-01-12T00:45:28.849Z,0.00
2023-01-12T00:46:28.869Z,0.00
2023-01-12T00:47:28.831Z,0.00
2023-01-12T00:48:28.827Z,0.00
2023-01-12T00:49:28.825Z,0.00
2023-01-12T00:50:28.804Z,0.00
2023-01-12T00:51:28.790Z,0.00
2023-01-12T00:52:31.375Z,0.00
2023-01-12T00:53:28.775Z,0.00
2023-01-12T00:54:28.778Z,0.00
2023-01-12T00:55:28.751Z,0.00
2023-01-12T00:56:28.718Z,0.00
2023-01-12T00:57:28.823Z,0.00
2023-01-12T00:58:28.712Z,0.00
2023-01-12T00:59:28.706Z,0.00
2023-01-12T01:00:28.696Z,0.00
2023-01-12T01:01:28.831Z,0.00
2023-01-12T01:02:28.770Z,0.00
2023-01-12T01:03:28.655Z,0.00
2023-01-12T01:04:28.673Z,0.00
2023-01-12T01:05:28.632Z,0.00
2023-01-12T01:06:28.623Z,0.00
2023-01-12T01:07:28.608Z,0.00
2023-01-12T01:08:28.618Z,0.00
2023-01-12T01:09:28.605Z,0.00
2023-01-12T01:10:28.611Z,0.00
2023-01-12T01:11:28.562Z,0.00
2023-01-12T01:12:28.566Z,0.00
2023-01-12T01:13:28.539Z,0.00
2023-01-12T01:14:28.610Z,0.00
2023-01-12T01:15:28.534Z,0.00
2023-01-12T01:16:28.520Z,0.00
2023-01-12T01:17:28.498Z,0.00
2023-01-12T01:18:28.501Z,0.00
2023-01-12T01:19:28.515Z,0.00
2023-01-12T01:20:28.470Z,0.00
2023-01-12T01:21:28.445Z,0.00
2023-01-12T01:22:28.447Z,0.00
2023-01-12T01:23:28.444Z,0.00
2023-01-12T01:24:28.448Z,0.00
2023-01-12T01:25:28.419Z,0.00
2023-01-12T01:26:28.399Z,0.00
2023-01-12T01:27:28.388Z,0.00
2023-01-12T01:28:28.383Z,0.00
2023-01-12T01:29:28.388Z,0.00
2023-01-12T01:30:28.356Z,0.00
2023-01-12T01:31:28.413Z,0.00
2023-01-12T01:32:28.337Z,0.00
2023-01-12T01:33:28.337Z,0.00
2023-01-12T01:34:28.350Z,0.00
2023-01-12T01:35:28.304Z,0.00
2023-01-12T01:36:28.290Z,0.00
2023-01-12T01:37:28.273Z,0.00
2023-01-12T01:38:28.272Z,0.00
2023-01-12T01:39:28.271Z,0.00
2023-01-12T01:40:28.252Z,0.00
2023-01-12T01:41:28.255Z,0.00
2023-01-12T01:42:28.571Z,0.00
2023-01-12T01:43:28.218Z,0.00
2023-01-12T01:44:28.216Z,0.00
2023-01-12T01:45:28.193Z,0.00
2023-01-12T01:46:28.253Z,0.00
2023-01-12T01:47:28.176Z,0.00
2023-01-12T01:48:28.153Z,0.00
2023-01-12T01:49:28.179Z,0.00
2023-01-12T01:50:28.141Z,0.00
2023-01-12T01:51:28.130Z,0.00
2023-01-12T01:52:28.115Z,0.00
2023-01-12T01:53:28.108Z,0.00
2023-01-12T01:54:28.128Z,0.00
2023-01-12T01:55:28.072Z,0.00
2023-01-12T01:56:28.107Z,0.00
2023-01-12T01:57:28.079Z,0.00
2023-01-12T01:58:28.057Z,0.00
2023-01-12T01:59:28.068Z,0.00
2023-01-12T02:00:28.047Z,0.00
2023-01-12T02:01:28.133Z,0.00
2023-01-12T02:02:28.125Z,0.00
2023-01-12T02:03:28.047Z,0.00
2023-01-12T02:04:28.003Z,0.00
2023-01-12T02:05:28.006Z,0.00
2023-01-12T02:06:27.971Z,0.00
2023-01-12T02:07:27.956Z,0.00
2023-01-12T02:08:27.952Z,0.00
2023-01-12T02:09:27.943Z,0.00
2023-01-12T02:10:27.918Z,0.00
2023-01-12T02:11:27.910Z,0.00
2023-01-12T02:12:27.910Z,0.00
2023-01-12T02:13:27.902Z,0.00
2023-01-12T02:14:27.902Z,0.00
2023-01-12T02:15:27.883Z,0.00
2023-01-12T02:16:27.896Z,0.00
2023-01-12T02:17:27.846Z,0.00
2023-01-12T02:18:27.847Z,0.00
2023-01-12T02:19:27.848Z,0.00
2023-01-12T02:20:27.830Z,0.00
2023-01-12T02:21:27.822Z,0.00
2023-01-12T02:22:27.845Z,0.00
2023-01-12T02:23:27.800Z,0.00
2023-01-12T02:24:27.762Z,0.00
2023-01-12T02:25:27.819Z,0.00
2023-01-12T02:26:27.747Z,0.00
2023-01-12T02:27:27.746Z,0.00
2023-01-12T02:28:27.753Z,0.00
2023-01-12T02:29:27.721Z,0.00
2023-01-12T02:30:27.719Z,0.00
2023-01-12T02:31:27.743Z,0.00
2023-01-12T02:32:27.678Z,0.00
2023-01-12T02:33:27.677Z,0.00
2023-01-12T02:34:27.679Z,0.00
2023-01-12T02:35:27.673Z,0.00
2023-01-12T02:36:27.632Z,0.00
2023-01-12T02:37:27.628Z,0.00
2023-01-12T02:38:27.628Z,0.00
2023-01-12T02:39:27.598Z,0.00
2023-01-12T02:40:27.607Z,0.00
2023-01-12T02:41:27.578Z,0.00
2023-01-12T02:42:27.574Z,0.00
2023-01-12T02:43:27.555Z,0.00
2023-01-12T02:44:27.546Z,0.00
2023-01-12T02:45:27.551Z,0.00
2023-01-12T02:46:27.560Z,0.00
2023-01-12T02:47:27.520Z,0.00
2023-01-12T02:48:27.498Z,0.00
2023-01-12T02:49:27.496Z,0.00
2023-01-12T02:50:27.520Z,0.00
2023-01-12T02:51:27.473Z,0.00
2023-01-12T02:52:27.455Z,0.00
2023-01-12T02:53:27.449Z,0.00
2023-01-12T02:54:27.441Z,0.00
2023-01-12T02:55:27.460Z,0.00
2023-01-12T02:56:27.421Z,0.00
2023-01-12T02:57:27.405Z,0.00
2023-01-12T02:58:27.391Z,0.00
2023-01-12T02:59:27.393Z,0.00
2023-01-12T03:00:27.454Z,0.00
2023-01-12T03:01:27.531Z,0.00
2023-01-12T03:02:27.341Z,0.00
2023-01-12T03:03:27.359Z,0.00
2023-01-12T03:04:27.321Z,0.00
2023-01-12T03:05:27.335Z,0.00
2023-01-12T03:06:27.298Z,0.00
2023-01-12T03:07:27.298Z,0.00
2023-01-12T03:08:27.285Z,0.00
2023-01-12T03:09:27.272Z,0.00
2023-01-12T03:10:27.290Z,0.00
2023-01-12T03:11:27.260Z,0.00
2023-01-12T03:12:27.267Z,0.00
2023-01-12T03:13:27.228Z,0.00
2023-01-12T03:14:27.230Z,0.00
2023-01-12T03:15:27.241Z,0.00
2023-01-12T03:16:27.232Z,0.00
2023-01-12T03:17:27.186Z,0.00
2023-01-12T03:18:27.176Z,0.00
2023-01-12T03:19:27.183Z,0.00
2023-01-12T03:20:27.165Z,0.00
2023-01-12T03:21:27.139Z,0.00
2023-01-12T03:22:27.139Z,0.00
2023-01-12T03:23:27.117Z,0.00
2023-01-12T03:24:27.108Z,0.00
2023-01-12T03:25:27.130Z,0.00
2023-01-12T03:26:27.086Z,0.00
2023-01-12T03:27:27.094Z,0.00
2023-01-12T03:28:27.087Z,0.00
2023-01-12T03:29:27.072Z,0.00
2023-01-12T03:30:27.060Z,0.00
2023-01-12T03:31:27.055Z,0.00
2023-01-12T03:32:27.033Z,0.00
2023-01-12T03:33:27.026Z,0.00
2023-01-12T03:34:27.015Z,0.00
2023-01-12T03:35:27.002Z,0.00
2023-01-12T03:36:26.978Z,0.00
2023-01-12T03:37:33.525Z,0.00
2023-01-12T03:38:26.952Z,0.00
2023-01-12T03:39:26.942Z,0.00
2023-01-12T03:40:26.937Z,0.00
2023-01-12T03:41:26.915Z,0.00
2023-01-12T03:42:26.910Z,0.00
2023-01-12T03:43:26.899Z,0.00
2023-01-12T03:44:26.915Z,0.00
2023-01-12T03:45:26.896Z,0.00
2023-01-12T03:46:26.911Z,0.00
2023-01-12T03:47:26.863Z,0.00
2023-01-12T03:48:26.840Z,0.00
2023-01-12T03:49:26.845Z,0.00
2023-01-12T03:50:26.835Z,0.00
2023-01-12T03:51:26.810Z,0.00
2023-01-12T03:52:26.815Z,0.00
2023-01-12T03:53:26.784Z,0.00
2023-01-12T03:54:26.784Z,0.00
2023-01-12T03:55:26.786Z,0.00
2023-01-12T03:56:26.756Z,0.00
2023-01-12T03:57:26.749Z,0.00
2023-01-12T03:58:26.735Z,0.00
2023-01-12T03:59:26.725Z,0.00
2023-01-12T04:00:26.751Z,0.00
2023-01-12T04:01:26.841Z,0.00
2023-01-12T04:02:26.691Z,0.00
2023-01-12T04:03:26.681Z,0.00
2023-01-12T04:04:26.663Z,0.00
2023-01-12T04:05:26.711Z,0.00
2023-01-12T04:06:26.647Z,0.00
2023-01-12T04:07:26.634Z,0.00
2023-01-12T04:08:26.623Z,0.00
2023-01-12T04:09:26.621Z,0.00
2023-01-12T04:10:26.620Z,0.00
2023-01-12T04:11:26.599Z,0.00
2023-01-12T04:12:26.592Z,0.00
2023-01-12T04:13:26.569Z,0.00
2023-01-12T04:14:26.564Z,0.00
2023-01-12T04:15:26.587Z,0.00
2023-01-12T04:16:26.595Z,0.00
2023-01-12T04:17:26.522Z,0.00
2023-01-12T04:18:26.517Z,0.00
2023-01-12T04:19:26.516Z,0.00
2023-01-12T04:20:26.506Z,0.00
2023-01-12T04:21:26.498Z,0.00
2023-01-12T04:22:26.475Z,0.00
2023-01-12T04:23:26.465Z,0.00
2023-01-12T04:24:26.450Z,0.00
2023-01-12T04:25:26.457Z,0.00
2023-01-12T04:26:26.456Z,0.00
2023-01-12T04:27:26.421Z,0.00
2023-01-12T04:28:26.407Z,0.00
2023-01-12T04:29:26.401Z,0.00
2023-01-12T04:30:26.399Z,0.00
2023-01-12T04:31:26.410Z,0.00
2023-01-12T04:32:26.370Z,0.00
2023-01-12T04:33:26.356Z,0.00
2023-01-12T04:34:26.341Z,0.00
2023-01-12T04:35:26.343Z,0.00
2023-01-12T04:36:26.334Z,0.00
2023-01-12T04:37:26.307Z,0.00
2023-01-12T04:38:26.293Z,0.00
2023-01-12T04:39:26.282Z,0.00
2023-01-12T04:40:26.327Z,0.00
2023-01-12T04:41:26.262Z,0.00
2023-01-12T04:42:26.256Z,0.00
2023-01-12T04:43:26.278Z,0.00
2023-01-12T04:44:26.248Z,0.00
2023-01-12T04:45:26.218Z,0.00
2023-01-12T04:46:26.227Z,0.00
2023-01-12T04:47:26.209Z,0.00
2023-01-12T04:48:26.187Z,0.00
2023-01-12T04:49:26.179Z,0.00
2023-01-12T04:50:26.169Z,0.00
2023-01-12T04:51:26.171Z,0.00
2023-01-12T04:52:26.145Z,0.00
2023-01-12T04:53:26.164Z,0.00
2023-01-12T04:54:26.118Z,0.00
2023-01-12T04:55:26.105Z,0.00
2023-01-12T04:56:26.120Z,0.00
2023-01-12T04:57:26.092Z,0.00
2023-01-12T04:58:26.076Z,0.00
2023-01-12T04:59:26.079Z,0.00
2023-01-12T05:00:26.059Z,0.00
2023-01-12T05:01:26.154Z,0.00
2023-01-12T05:02:26.037Z,0.00
2023-01-12T05:03:26.020Z,0.00
2023-01-12T05:04:26.103Z,0.00
2023-01-12T05:05:26.010Z,0.00
2023-01-12T05:06:26.004Z,0.00
2023-01-12T05:07:25.971Z,0.00
2023-01-12T05:08:25.963Z,0.00
2023-01-12T05:09:25.973Z,0.00
2023-01-12T05:10:25.947Z,0.00
2023-01-12T05:11:25.970Z,0.00
2023-01-12T05:12:25.938Z,0.00
2023-01-12T05:13:25.910Z,0.00
2023-01-12T05:14:25.913Z,0.00
2023-01-12T05:15:25.900Z,0.00
2023-01-12T05:16:25.958Z,0.00
2023-01-12T05:17:25.866Z,0.00
2023-01-12T05:18:25.852Z,0.00
2023-01-12T05:19:25.851Z,0.00
2023-01-12T05:20:25.838Z,0.00
2023-01-12T05:21:25.847Z,0.00
2023-01-12T05:22:25.831Z,0.00
2023-01-12T05:23:25.796Z,0.00
2023-01-12T05:24:25.795Z,0.00
2023-01-12T05:25:25.784Z,0.00
2023-01-12T05:26:25.786Z,0.00
2023-01-12T05:27:25.757Z,0.00
2023-01-12T05:28:25.768Z,0.00
2023-01-12T05:29:25.740Z,0.00
2023-01-12T05:30:25.730Z,0.00
2023-01-12T05:31:25.743Z,0.00
2023-01-12T05:32:25.711Z,0.00
2023-01-12T05:33:25.693Z,0.00
2023-01-12T05:34:25.690Z,0.00
2023-01-12T05:35:25.700Z,0.00
2023-01-12T05:36:26.624Z,0.00
2023-01-12T05:37:25.653Z,0.00
2023-01-12T05:38:25.642Z,0.00
2023-01-12T05:39:25.647Z,0.00
2023-01-12T05:40:25.620Z,0.00
2023-01-12T05:41:25.632Z,0.00
2023-01-12T05:42:25.596Z,0.00
2023-01-12T05:43:25.594Z,0.00
2023-01-12T05:44:25.570Z,0.00
2023-01-12T05:45:25.578Z,0.00
2023-01-12T05:46:25.634Z,0.00
2023-01-12T05:47:25.542Z,0.00
2023-01-12T05:48:25.523Z,0.00
2023-01-12T05:49:25.521Z,0.00
2023-01-12T05:50:25.505Z,0.00
2023-01-12T05:51:25.520Z,0.00
2023-01-12T05:52:25.494Z,0.00
2023-01-12T05:53:25.477Z,0.00
2023-01-12T05:54:25.713Z,0.00
2023-01-12T05:55:25.448Z,0.00
2023-01-12T05:56:25.496Z,0.00
2023-01-12T05:57:25.433Z,0.00
2023-01-12T05:58:25.441Z,0.00
2023-01-12T05:59:25.416Z,0.00
2023-01-12T06:00:25.402Z,0.00
2023-01-12T06:01:25.528Z,0.00
2023-01-12T06:02:25.419Z,0.00
2023-01-12T06:03:27.729Z,0.00
2023-01-12T06:04:25.427Z,0.00
2023-01-12T06:05:25.345Z,0.00
2023-01-12T06:06:25.346Z,0.00
2023-01-12T06:07:25.325Z,0.00
2023-01-12T06:08:25.318Z,0.00
2023-01-12T06:09:25.304Z,0.00
2023-01-12T06:10:25.307Z,0.00
2023-01-12T06:11:25.324Z,0.00
2023-01-12T06:12:25.265Z,0.00
2023-01-12T06:13:25.259Z,0.00
2023-01-12T06:14:25.249Z,0.00
2023-01-12T06:15:25.235Z,0.00
2023-01-12T06:16:25.245Z,0.00
2023-01-12T06:17:25.245Z,0.00
2023-01-12T06:18:25.197Z,0.00
2023-01-12T06:19:25.203Z,0.00
2023-01-12T06:20:25.184Z,0.00
2023-01-12T06:21:25.190Z,0.00
2023-01-12T06:22:25.152Z,0.00
2023-01-12T06:23:35.014Z,0.00
2023-01-12T06:24:25.142Z,0.00
2023-01-12T06:25:25.117Z,0.00
2023-01-12T06:26:25.140Z,0.00
2023-01-12T06:27:25.115Z,0.00
2023-01-12T06:28:25.094Z,0.00
2023-01-12T06:29:25.077Z,0.00
2023-01-12T06:30:25.075Z,0.00
2023-01-12T06:31:25.139Z,0.00
2023-01-12T06:32:25.043Z,0.00
2023-01-12T06:33:25.035Z,0.00
2023-01-12T06:34:25.055Z,0.00
2023-01-12T06:35:25.012Z,0.00
2023-01-12T06:36:25.054Z,0.00
2023-01-12T06:37:25.019Z,0.00
2023-01-12T06:38:24.988Z,0.00
2023-01-12T06:39:25.012Z,0.00
2023-01-12T06:40:24.959Z,0.00
2023-01-12T06:41:25.035Z,0.00
2023-01-12T06:42:24.929Z,0.00
2023-01-12T06:43:24.927Z,0.00
2023-01-12T06:44:24.921Z,0.00
2023-01-12T06:45:24.904Z,0.00
2023-01-12T06:46:24.980Z,0.00
2023-01-12T06:47:24.883Z,0.00
2023-01-12T06:48:24.873Z,0.00
2023-01-12T06:49:24.867Z,0.00
2023-01-12T06:50:24.853Z,0.00
2023-01-12T06:51:24.863Z,0.00
2023-01-12T06:52:24.840Z,0.00
2023-01-12T06:53:24.816Z,0.00
2023-01-12T06:54:24.799Z,0.00
2023-01-12T06:55:24.806Z,0.00
2023-01-12T06:56:24.800Z,0.00
2023-01-12T06:57:24.780Z,0.00
2023-01-12T06:58:24.760Z,0.00
2023-01-12T06:59:24.746Z,0.00
2023-01-12T07:00:24.741Z,0.00
2023-01-12T07:01:24.896Z,0.00
2023-01-12T07:02:24.718Z,0.00
2023-01-12T07:03:24.712Z,0.00
2023-01-12T07:04:24.800Z,4.00
2023-01-12T07:05:24.685Z,0.00
2023-01-12T07:06:24.708Z,4.00
2023-01-12T07:07:24.663Z,0.00
2023-01-12T07:08:24.656Z,4.00
2023-01-12T07:09:24.637Z,4.00
2023-01-12T07:10:24.631Z,4.00
2023-01-12T07:11:24.644Z,8.00
2023-01-12T07:12:24.608Z,8.00
2023-01-12T07:13:24.598Z,8.00
2023-01-12T07:14:24.590Z,8.00
2023-01-12T07:15:24.581Z,8.00
2023-01-12T07:16:24.637Z,8.00
2023-01-12T07:17:24.578Z,8.00
2023-01-12T07:18:24.556Z,8.00
2023-01-12T07:19:24.527Z,12.00
2023-01-12T07:20:24.531Z,12.00
2023-01-12T07:21:24.542Z,12.00
2023-01-12T07:22:24.544Z,16.00
2023-01-12T07:23:24.494Z,20.00
2023-01-12T07:24:24.474Z,20.00
2023-01-12T07:25:24.465Z,20.00
2023-01-12T07:26:24.459Z,20.00
2023-01-12T07:27:24.464Z,24.00
2023-01-12T07:28:24.435Z,24.00
2023-01-12T07:29:24.423Z,24.00
2023-01-12T07:30:24.408Z,20.00
2023-01-12T07:31:24.429Z,24.00
2023-01-12T07:32:24.403Z,28.00
2023-01-12T07:33:24.381Z,28.00
2023-01-12T07:34:24.360Z,36.00
2023-01-12T07:35:24.354Z,56.00
2023-01-12T07:36:24.349Z,44.00
2023-01-12T07:37:24.346Z,40.00
2023-01-12T07:38:24.323Z,48.00
2023-01-12T07:39:24.312Z,48.00
2023-01-12T07:40:24.309Z,56.00
2023-01-12T07:41:24.285Z,64.00
2023-01-12T07:42:24.309Z,48.00
2023-01-12T07:43:24.268Z,44.00
2023-01-12T07:44:24.252Z,40.00
2023-01-12T07:45:24.251Z,60.00
2023-01-12T07:46:24.254Z,68.00
2023-01-12T07:47:24.232Z,60.00
2023-01-12T07:48:24.213Z,76.00
2023-01-12T07:49:24.205Z,72.00
2023-01-12T07:50:24.195Z,84.00
2023-01-12T07:51:24.176Z,84.00
2023-01-12T07:52:24.200Z,72.00
2023-01-12T07:53:24.259Z,76.00
2023-01-12T07:54:24.146Z,76.00
2023-01-12T07:55:24.146Z,80.00
2023-01-12T07:56:24.122Z,112.00
2023-01-12T07:57:24.163Z,124.00
2023-01-12T07:58:24.105Z,140.00
2023-01-12T07:59:24.087Z,160.00
2023-01-12T08:00:24.079Z,180.00
2023-01-12T08:01:24.231Z,184.00
2023-01-12T08:02:24.088Z,176.00
2023-01-12T08:03:24.053Z,204.00
2023-01-12T08:04:24.031Z,188.00
2023-01-12T08:05:24.114Z,208.00
2023-01-12T08:06:24.025Z,196.00
2023-01-12T08:07:24.037Z,172.00
2023-01-12T08:08:23.988Z,168.00
2023-01-12T08:09:23.987Z,168.00
2023-01-12T08:10:23.997Z,204.00
2023-01-12T08:11:23.964Z,212.00
2023-01-12T08:12:23.965Z,196.00
2023-01-12T08:13:23.964Z,152.00
2023-01-12T08:14:23.927Z,160.00
2023-01-12T08:15:23.919Z,212.00
2023-01-12T08:16:23.918Z,224.00
2023-01-12T08:17:23.909Z,276.00
2023-01-12T08:18:23.889Z,264.00
2023-01-12T08:19:23.872Z,256.00
2023-01-12T08:20:23.860Z,196.00
2023-01-12T08:21:23.858Z,156.00
2023-01-12T08:22:23.856Z,156.00
2023-01-12T08:23:23.832Z,156.00
2023-01-12T08:24:23.809Z,180.00
2023-01-12T08:25:23.801Z,168.00
2023-01-12T08:26:23.806Z,156.00
2023-01-12T08:27:23.816Z,152.00
2023-01-12T08:28:23.785Z,156.00
2023-01-12T08:29:23.764Z,184.00
2023-01-12T08:30:23.749Z,196.00
2023-01-12T08:31:23.768Z,248.00
2023-01-12T08:32:23.787Z,308.00
2023-01-12T08:33:23.717Z,336.00
2023-01-12T08:34:23.731Z,284.00
2023-01-12T08:35:23.704Z,404.00
2023-01-12T08:36:23.691Z,396.00
2023-01-12T08:37:23.691Z,496.00
2023-01-12T08:38:23.776Z,432.00
2023-01-12T08:39:23.660Z,480.00
2023-01-12T08:40:23.643Z,568.00
2023-01-12T08:41:23.629Z,484.00
2023-01-12T08:42:25.154Z,472.00
2023-01-12T08:43:23.610Z,428.00
2023-01-12T08:44:23.602Z,380.00
2023-01-12T08:45:23.594Z,276.00
2023-01-12T08:46:23.603Z,232.00
2023-01-12T08:47:23.581Z,276.00
2023-01-12T08:48:23.560Z,256.00
2023-01-12T08:49:24.479Z,240.00
2023-01-12T08:50:23.540Z,292.00
2023-01-12T08:51:23.519Z,284.00
2023-01-12T08:52:23.552Z,332.00
2023-01-12T08:53:23.499Z,492.00
2023-01-12T08:54:23.490Z,460.00
2023-01-12T08:55:23.472Z,516.00
2023-01-12T08:56:23.461Z,428.00
2023-01-12T08:57:23.466Z,412.00
2023-01-12T08:58:23.438Z,404.00
2023-01-12T08:59:23.439Z,324.00
2023-01-12T09:00:23.429Z,384.00
2023-01-12T09:01:23.577Z,384.00
2023-01-12T09:02:23.519Z,400.00
2023-01-12T09:03:23.393Z,408.00
2023-01-12T09:04:23.385Z,452.00
2023-01-12T09:05:23.370Z,480.00
2023-01-12T09:06:23.360Z,424.00
2023-01-12T09:07:23.363Z,356.00
2023-01-12T09:08:23.344Z,372.00
2023-01-12T09:09:23.333Z,348.00
2023-01-12T09:10:23.379Z,340.00
2023-01-12T09:11:23.317Z,496.00
2023-01-12T09:12:24.541Z,712.00
2023-01-12T09:13:23.286Z,616.00
2023-01-12T09:14:23.270Z,556.00
2023-01-12T09:15:23.256Z,400.00
2023-01-12T09:16:23.277Z,436.00
2023-01-12T09:17:23.271Z,432.00
2023-01-12T09:18:23.222Z,468.00
2023-01-12T09:19:23.214Z,432.00
2023-01-12T09:20:23.241Z,380.00
2023-01-12T09:21:23.211Z,384.00
2023-01-12T09:22:23.205Z,420.00
2023-01-12T09:23:23.178Z,496.00
2023-01-12T09:24:23.164Z,596.00
2023-01-12T09:25:23.220Z,504.00
2023-01-12T09:26:23.179Z,496.00
2023-01-12T09:27:23.144Z,520.00
2023-01-12T09:28:23.115Z,540.00
2023-01-12T09:29:23.118Z,488.00
2023-01-12T09:30:23.150Z,412.00
2023-01-12T09:31:23.118Z,456.00
2023-01-12T09:32:29.144Z,392.00
2023-01-12T09:33:24.109Z,400.00
2023-01-12T09:34:23.045Z,464.00
2023-01-12T09:35:23.035Z,528.00
2023-01-12T09:36:23.052Z,688.00
2023-01-12T09:37:23.035Z,748.00
2023-01-12T09:38:29.573Z,792.00
2023-01-12T09:39:27.924Z,692.00
2023-01-12T09:40:23.004Z,764.00
2023-01-12T09:41:22.986Z,924.00
2023-01-12T09:42:22.991Z,908.00
2023-01-12T09:43:22.956Z,840.00
2023-01-12T09:44:22.947Z,728.00
2023-01-12T09:45:22.937Z,648.00
2023-01-12T09:46:22.927Z,656.00
2023-01-12T09:47:22.957Z,744.00
2023-01-12T09:48:22.889Z,760.00
2023-01-12T09:49:22.892Z,824.00
2023-01-12T09:50:22.963Z,808.00
2023-01-12T09:51:22.875Z,772.00
2023-01-12T09:52:22.884Z,624.00
2023-01-12T09:53:22.863Z,660.00
2023-01-12T09:54:22.837Z,984.00
2023-01-12T09:55:22.863Z,944.00
2023-01-12T09:56:22.825Z,960.00
2023-01-12T09:57:28.899Z,864.00
2023-01-12T09:58:22.804Z,848.00
2023-01-12T09:59:22.797Z,912.00
2023-01-12T10:00:22.789Z,956.00
2023-01-12T10:01:29.109Z,996.00
2023-01-12T10:02:22.844Z,820.00
2023-01-12T10:03:22.808Z,1000.00
2023-01-12T10:04:22.725Z,876.00
2023-01-12T10:05:25.996Z,900.00
2023-01-12T10:06:22.707Z,900.00
2023-01-12T10:07:22.736Z,868.00
2023-01-12T10:08:22.682Z,944.00
2023-01-12T10:09:22.708Z,732.00
2023-01-12T10:10:22.658Z,724.00
2023-01-12T10:11:22.655Z,752.00
2023-01-12T10:12:22.663Z,752.00
2023-01-12T10:13:22.624Z,676.00
2023-01-12T10:14:22.627Z,464.00
2023-01-12T10:15:22.619Z,612.00
2023-01-12T10:16:22.634Z,584.00
2023-01-12T10:17:22.605Z,520.00
2023-01-12T10:18:22.568Z,644.00
2023-01-12T10:19:22.570Z,772.00
2023-01-12T10:20:22.554Z,696.00
2023-01-12T10:21:22.539Z,608.00
2023-01-12T10:22:22.546Z,512.00
2023-01-12T10:23:22.538Z,452.00
2023-01-12T10:24:22.521Z,420.00
2023-01-12T10:25:22.522Z,424.00
2023-01-12T10:26:22.487Z,556.00
2023-01-12T10:27:22.495Z,544.00
2023-01-12T10:28:22.483Z,568.00
2023-01-12T10:29:22.455Z,808.00
2023-01-12T10:30:22.452Z,576.00
2023-01-12T10:31:22.456Z,640.00
2023-01-12T10:32:26.578Z,708.00
2023-01-12T10:33:22.446Z,828.00
2023-01-12T10:34:22.429Z,764.00
2023-01-12T10:35:22.449Z,1076.00
2023-01-12T10:36:22.406Z,956.00
2023-01-12T10:37:22.405Z,960.00
2023-01-12T10:38:22.361Z,1040.00
2023-01-12T10:39:22.354Z,908.00
2023-01-12T10:40:22.357Z,1044.00
2023-01-12T10:41:22.350Z,1036.00
2023-01-12T10:42:22.374Z,844.00
2023-01-12T10:43:22.363Z,1116.00
2023-01-12T10:44:22.289Z,1148.00
2023-01-12T10:45:22.297Z,1128.00
2023-01-12T10:46:22.271Z,1048.00
2023-01-12T10:47:22.261Z,832.00
2023-01-12T10:48:22.264Z,640.00
2023-01-12T10:49:22.256Z,552.00
2023-01-12T10:50:22.235Z,704.00
2023-01-12T10:51:22.218Z,1116.00
2023-01-12T10:52:22.211Z,756.00
2023-01-12T10:53:22.203Z,628.00
2023-01-12T10:54:22.185Z,564.00
2023-01-12T10:55:22.213Z,512.00
2023-01-12T10:56:22.232Z,648.00
2023-01-12T10:57:22.158Z,860.00
2023-01-12T10:58:22.198Z,1032.00
2023-01-12T10:59:22.146Z,1084.00
2023-01-12T11:00:22.971Z,1248.00
2023-01-12T11:01:22.201Z,940.00
2023-01-12T11:02:22.326Z,560.00
2023-01-12T11:03:22.110Z,596.00
2023-01-12T11:04:22.091Z,812.00
2023-01-12T11:05:22.070Z,1224.00
2023-01-12T11:06:22.053Z,880.00
2023-01-12T11:07:22.059Z,736.00
2023-01-12T11:08:22.071Z,668.00
2023-01-12T11:09:22.022Z,632.00
2023-01-12T11:10:22.012Z,632.00
2023-01-12T11:11:22.006Z,908.00
2023-01-12T11:12:21.991Z,1068.00
2023-01-12T11:13:22.050Z,988.00
2023-01-12T11:14:24.112Z,788.00
2023-01-12T11:15:21.959Z,1012.00
2023-01-12T11:16:21.979Z,1260.00
2023-01-12T11:17:21.932Z,1172.00
2023-01-12T11:18:21.943Z,1344.00
2023-01-12T11:19:21.920Z,1184.00
2023-01-12T11:20:21.916Z,876.00
2023-01-12T11:21:21.909Z,992.00
2023-01-12T11:22:21.879Z,1184.00
2023-01-12T11:23:21.924Z,1428.00
2023-01-12T11:24:21.859Z,1436.00
2023-01-12T11:25:21.842Z,1160.00
2023-01-12T11:26:21.847Z,836.00
2023-01-12T11:27:21.823Z,696.00
2023-01-12T11:28:21.827Z,696.00
2023-01-12T11:29:21.831Z,964.00
2023-01-12T11:30:21.805Z,940.00
2023-01-12T11:31:21.797Z,948.00
2023-01-12T11:32:21.772Z,1120.00
2023-01-12T11:33:21.773Z,1000.00
2023-01-12T11:34:21.764Z,1064.00
2023-01-12T11:35:21.749Z,1076.00
2023-01-12T11:36:21.740Z,788.00
2023-01-12T11:37:21.722Z,656.00
2023-01-12T11:38:21.735Z,760.00
2023-01-12T11:39:21.721Z,684.00
2023-01-12T11:40:21.686Z,716.00
2023-01-12T11:41:21.681Z,740.00
2023-01-12T11:42:21.668Z,684.00
2023-01-12T11:43:21.665Z,1116.00
2023-01-12T11:44:21.662Z,1160.00
2023-01-12T11:45:21.644Z,912.00
2023-01-12T11:46:21.724Z,924.00
2023-01-12T11:47:21.616Z,700.00
2023-01-12T11:48:21.611Z,940.00
2023-01-12T11:49:21.614Z,1192.00
2023-01-12T11:50:21.589Z,976.00
2023-01-12T11:51:21.576Z,1300.00
2023-01-12T11:52:21.568Z,1192.00
2023-01-12T11:53:21.557Z,1120.00
2023-01-12T11:54:21.550Z,1360.00
2023-01-12T11:55:21.524Z,1136.00
2023-01-12T11:56:21.511Z,1372.00
2023-01-12T11:57:21.500Z,1028.00
2023-01-12T11:58:21.482Z,716.00
2023-01-12T11:59:21.503Z,424.00
2023-01-12T12:00:21.473Z,304.00
2023-01-12T12:01:21.573Z,348.00
2023-01-12T12:02:21.562Z,680.00
2023-01-12T12:03:21.456Z,792.00
2023-01-12T12:04:21.476Z,844.00
2023-01-12T12:05:21.430Z,920.00
2023-01-12T12:06:21.421Z,1064.00
2023-01-12T12:07:21.397Z,1260.00
2023-01-12T12:08:21.389Z,1368.00
2023-01-12T12:09:21.409Z,1252.00
2023-01-12T12:10:21.350Z,1048.00
2023-01-12T12:11:21.342Z,948.00
2023-01-12T12:12:21.327Z,1152.00
2023-01-12T12:13:21.368Z,1448.00
2023-01-12T12:14:21.334Z,1108.00
2023-01-12T12:15:21.309Z,1120.00
2023-01-12T12:16:21.293Z,1004.00
2023-01-12T12:17:21.394Z,976.00
2023-01-12T12:18:21.313Z,1216.00
2023-01-12T12:19:21.290Z,1396.00
2023-01-12T12:20:21.244Z,1324.00
2023-01-12T12:21:21.242Z,984.00
2023-01-12T12:22:21.235Z,844.00
2023-01-12T12:23:21.220Z,808.00
2023-01-12T12:24:21.222Z,788.00
2023-01-12T12:25:21.189Z,1028.00
2023-01-12T12:26:21.197Z,856.00
2023-01-12T12:27:21.185Z,868.00
2023-01-12T12:28:21.159Z,912.00
2023-01-12T12:29:21.161Z,896.00
2023-01-12T12:30:21.142Z,736.00
2023-01-12T12:31:21.332Z,816.00
2023-01-12T12:32:21.115Z,836.00
2023-01-12T12:33:21.150Z,1152.00
2023-01-12T12:34:21.111Z,1448.00
2023-01-12T12:35:21.086Z,1376.00
2023-01-12T12:36:21.112Z,1548.00
2023-01-12T12:37:21.063Z,1708.00
2023-01-12T12:38:21.177Z,1328.00
2023-01-12T12:39:21.065Z,1136.00
2023-01-12T12:40:21.041Z,988.00
2023-01-12T12:41:21.007Z,672.00
2023-01-12T12:42:21.008Z,716.00
2023-01-12T12:43:20.983Z,688.00
2023-01-12T12:44:20.993Z,592.00
2023-01-12T12:45:20.982Z,580.00
2023-01-12T12:46:21.098Z,500.00
2023-01-12T12:47:20.942Z,460.00
2023-01-12T12:48:20.945Z,380.00
2023-01-12T12:49:20.939Z,460.00
2023-01-12T12:50:20.910Z,548.00
2023-01-12T12:51:20.901Z,804.00
2023-01-12T12:52:20.911Z,812.00
2023-01-12T12:53:20.888Z,864.00
2023-01-12T12:54:20.880Z,684.00
2023-01-12T12:55:20.864Z,740.00